• Join FlightAware (Why Join?)
  • Login
  • US Flag 
10:47AM EST


 

Airport Tracker/Info


-or-


 

Live Flight TrackerFlight Track Log ✈ AM214 ✈ 24-Aug-2013 ✈ YLRD / LHG - YSSY / SYD

Flight Track Log - Related Links

Times and Time Zones

All times are in EDT time to prevent confusion due to time zone crossing. See the AM214 flight status page for this flight to view local times or setup timezone preferences in your user account.

Time Position Orientation Groundspeed Altitude Reporting Facility
EDT Latitude Longitude Course Direction KTS MPH feet Rate Location/Type
12:02PM -29.6707 148.0365 143° Southeast 17,500  Level Aus ATC (Calculated)
12:03PM -29.6707 148.0365 143° Southeast 17,500 300 Level Aus ATC (Calculated)
12:05PM -29.7668 148.0600 168° South  Level FlightAware Approximate
12:06PM -29.8469 148.0796 168° South  Level FlightAware Approximate
12:06PM -29.8267 148.0746 133° Southeast 17,500  Level Aus ATC (Calculated)
12:07PM -29.9270 148.0992 168° South  Level FlightAware Approximate
12:08PM -29.9228 148.0982 168° South  Level FlightAware Approximate
12:09PM -30.0029 148.1178 168° South  Level FlightAware Approximate
12:09PM -29.9270 148.0992 121° Southeast 17,500  Level Aus ATC (Calculated)
12:11PM -30.0356 148.1446 115° Southeast  Level FlightAware Approximate
12:12PM -30.0697 148.2306 115° Southeast  Level FlightAware Approximate
12:12PM -30.0606 148.2075 97° East 21,000  Level Aus ATC (Calculated)
12:12PM -30.0938 148.2913 81° East 21,000 60 Level Aus ATC (Calculated)
12:14PM -30.1415 148.4117 115° Southeast  Level FlightAware Approximate
12:15PM -30.1755 148.4979 115° Southeast  Level FlightAware Approximate
12:15PM -30.0803 148.3892 115° Southeast 312 359 21,300  Level Aus ATC (RADAR)
12:16PM -30.1487 148.4410 147° Southeast 217 250 21,300 -60 Level Aus ATC (RADAR)
12:18PM -30.2786 148.5284 150° Southeast 253 291 21,200 -60 Descending Aus ATC (RADAR)
12:19PM -30.3461 148.5740 150° Southeast 257 296 21,200  Level Aus ATC (RADAR)
12:20PM -30.4055 148.6160 149° Southeast 250 288 21,200  Level Aus ATC (RADAR)
12:21PM -30.4702 148.6621 148° Southeast 250 288 21,200  Level Aus ATC (RADAR)
12:22PM -30.5308 148.7049 149° Southeast 252 290 21,200  Level Aus ATC (RADAR)
12:23PM -30.5968 148.7511 149° Southeast 253 291 21,200  Level Aus ATC (RADAR)
12:24PM -30.6590 148.7942 149° Southeast 256 295 21,200  Level Aus ATC (RADAR)
12:26PM -30.7248 148.8404 149° Southeast 252 290 21,200  Level Aus ATC (RADAR)
12:27PM -30.7903 148.8866 149° Southeast 250 288 21,200  Level Aus ATC (RADAR)
12:28PM -30.8499 148.9292 149° Southeast 248 285 21,200  Level Aus ATC (RADAR)
12:29PM -30.9173 148.9759 149° Southeast 257 296 21,200  Level Aus ATC (RADAR)
12:30PM -31.0056 149.0371 149° Southeast 260 299 21,200  Level Aus ATC (RADAR)
12:31PM -31.0675 149.0801 149° Southeast 257 296 21,200  Level Aus ATC (RADAR)
12:32PM -31.1399 149.1308 149° Southeast 257 296 21,200  Level Aus ATC (RADAR)
12:33PM -31.2012 149.1743 149° Southeast 257 296 21,200  Level Aus ATC (RADAR)
12:34PM -31.2676 149.2213 149° Southeast 253 291 21,200  Level Aus ATC (RADAR)
12:35PM -31.3346 149.2686 149° Southeast 256 295 21,200  Level Aus ATC (RADAR)
12:36PM -31.3964 149.3123 149° Southeast 256 295 21,200  Level Aus ATC (RADAR)
12:37PM -31.4581 149.3561 149° Southeast 256 295 21,200  Level Aus ATC (RADAR)
12:38PM -31.5247 149.4035 149° Southeast 255 293 21,200  Level Aus ATC (RADAR)
12:40PM -31.5913 149.4511 149° Southeast 255 293 21,200  Level Aus ATC (RADAR)
12:41PM -31.6531 149.4950 149° Southeast 256 295 21,200  Level Aus ATC (RADAR)
12:42PM -31.7195 149.5431 148° Southeast 255 293 21,200  Level Aus ATC (RADAR)
12:43PM -31.7868 149.5913 149° Southeast 256 295 21,200  Level Aus ATC (RADAR)
12:44PM -31.8509 149.6367 149° Southeast 260 299 21,200  Level Aus ATC (RADAR)
12:45PM -31.9379 149.6997 148° Southeast 258 297 21,200  Level Aus ATC (RADAR)
12:46PM -32.0022 149.7454 149° Southeast 251 289 21,200  Level Aus ATC (RADAR)
12:47PM -32.0683 149.7938 148° Southeast 255 293 21,200 -120 Level Aus ATC (RADAR)
12:48PM -32.1309 149.8388 149° Southeast 256 295 21,000  Descending Aus ATC (RADAR)
12:49PM -32.1949 149.8853 148° Southeast 253 291 21,200 60 Climbing Aus ATC (RADAR)
12:50PM -32.2616 149.9334 149° Southeast 255 293 21,200 -120 Level Aus ATC (RADAR)
12:51PM -32.3250 149.9795 148° Southeast 259 298 21,000  Descending Aus ATC (RADAR)
12:53PM -32.3900 150.0266 149° Southeast 256 295 21,200 60 Climbing Aus ATC (RADAR)
12:54PM -32.4576 150.0759 148° Southeast 258 297 21,200 -180 Level Aus ATC (RADAR)
12:54PM -32.4690 150.0840 148° Southeast 265 305 21,000  Descending FlightAware
12:55PM -32.5204 150.1217 148° Southeast 260 299 21,200  Climbing Aus ATC (RADAR)
12:55PM -32.5160 150.1190 148° Southeast 265 305 21,000 -360 Descending FlightAware
12:55PM -32.5570 150.1480 149° Southeast 266 306 21,000  Level FlightAware
12:56PM -32.5940 150.1750 148° Southeast 267 307 21,000  Level FlightAware
12:56PM -32.6340 150.2040 149° Southeast 270 311 21,000  Level FlightAware
12:57PM -32.6760 150.2350 148° Southeast 264 304 21,000  Level FlightAware
12:58PM -32.7130 150.2630 148° Southeast 264 304 21,000  Level FlightAware
12:58PM -32.7510 150.2910 148° Southeast 266 306 21,000  Level FlightAware
12:59PM -32.7879 150.3177 148° Southeast 270 311 21,000  Level Aus ATC (RADAR)
12:59PM -32.7860 150.3160 148° Southeast 264 304 21,000  Level FlightAware
12:59PM -32.8260 150.3460 148° Southeast 265 305 21,000  Level FlightAware
01:00PM -32.8660 150.3750 149° Southeast 264 304 21,000  Level FlightAware
01:01PM -32.9120 150.4090 148° Southeast 265 305 21,000  Level FlightAware
01:01PM -32.9496 150.4370 148° Southeast 264 304 21,000  Level Aus ATC (RADAR)
01:01PM -32.9510 150.4370 148° Southeast 264 304 21,000  Level FlightAware
01:02PM -32.9850 150.4630 147° Southeast 265 305 21,000  Level FlightAware
01:03PM -33.0200 150.4890 148° Southeast 263 303 21,000  Level FlightAware
01:03PM -33.0550 150.5150 148° Southeast 264 304 21,000 -660 Level FlightAware
01:04PM -33.0880 150.5390 149° Southeast 266 306 20,300 -1,560 Descending FlightAware
01:04PM -33.1360 150.5740 149° Southeast 269 310 19,200 -1,380 Descending FlightAware
01:05PM -33.1730 150.6030 147° Southeast 190 219 18,400 -1,320 Descending FlightAware
01:06PM -33.2110 150.6310 147° Southeast 276 318 17,600 -1,560 Descending FlightAware
01:06PM -33.2176 150.6355 147° Southeast 267 307 17,500 -1,440 Descending Aus ATC (RADAR)
01:06PM -33.2620 150.6690 148° Southeast 275 316 16,500 -1,440 Descending FlightAware
01:07PM -33.2960 150.6940 148° Southeast 270 311 15,700 -1,380 Descending FlightAware
01:08PM -33.3340 150.7220 148° Southeast 264 304 14,900 -1,380 Descending FlightAware
01:08PM -33.3540 150.7500 131° Southeast 277 319 14,300 -1,440 Descending FlightAware
01:08PM -33.3760 150.7860 126° Southeast 272 313 13,700 -1,140 Descending FlightAware
01:09PM -33.4050 150.8310 128° Southeast 265 305 13,000 -1,200 Descending FlightAware
01:10PM -33.4380 150.8820 128° Southeast 263 303 12,100 -1,260 Descending FlightAware
01:10PM -33.4620 150.9200 127° Southeast 262 302 11,400 -1,260 Descending FlightAware
01:11PM -33.4889 150.9656 127° Southeast 256 295 10,700 -1,200 Descending Aus ATC (RADAR)
01:11PM -33.4880 150.9630 127° Southeast 262 302 10,700 -1,200 Level FlightAware
01:11PM -33.5120 151.0040 125° Southeast 260 299 10,000 -1,200 Descending FlightAware
01:12PM -33.5270 151.0250 131° Southeast 255 293 9,600 -1,320 Descending FlightAware
01:12PM -33.5450 151.0460 136° Southeast 253 291 9,100 -1,500 Descending FlightAware
01:13PM -33.5660 151.0680 139° Southeast 254 292 8,500 -1,380 Descending FlightAware
01:13PM -33.5830 151.0860 139° Southeast 249 287 8,100 -1,200 Descending FlightAware
01:13PM -33.5990 151.1020 140° Southeast 237 273 7,700 -1,200 Descending FlightAware
01:14PM -33.6170 151.1210 139° Southeast 224 258 7,300 -1,140 Descending FlightAware
01:14PM -33.6370 151.1410 140° Southeast 213 245 6,900 -1,080 Descending FlightAware
01:14PM -33.6440 151.1480 140° Southeast 211 243 6,700 -1,020 Descending FlightAware
01:14PM -33.6590 151.1640 138° Southeast 204 235 6,400 -960 Descending FlightAware
01:15PM -33.6760 151.1820 139° Southeast 200 230 6,000 -960 Descending FlightAware
01:15PM -33.6850 151.1910 140° Southeast 199 229 5,800 -1,080 Descending FlightAware
01:15PM -33.7000 151.2070 138° Southeast 199 229 5,400 -1,020 Descending FlightAware
01:16PM -33.7090 151.2180 135° Southeast 198 228 5,200 -1,020 Descending FlightAware
01:16PM -33.7190 151.2290 138° Southeast 198 228 4,900 -1,080 Descending FlightAware
01:16PM -33.7310 151.2430 136° Southeast 197 227 4,600 -1,080 Descending FlightAware
01:17PM -33.7500 151.2660 135° Southeast 196 226 4,100 -1,020 Descending FlightAware
01:17PM -33.7630 151.2810 136° Southeast 197 227 3,800 -1,020 Descending FlightAware
01:17PM -33.7760 151.2960 136° Southeast 198 228 3,400 -1,020 Descending FlightAware
01:18PM -33.7820 151.2980 165° South 182 209 3,300 -1,200 Descending FlightAware
01:18PM -33.8020 151.3050 164° South 181 208 2,800 -1,140 Descending FlightAware
01:18PM -33.8160 151.3100 163° South 183 211 2,600 -960 Descending FlightAware
01:19PM -33.8300 151.3140 167° South 175 201 2,300 -960 Descending FlightAware
01:19PM -33.8510 151.3220 162° South 168 193 1,900 -300 Descending FlightAware
01:20PM -33.8740 151.3300 164° South 158 182 2,000  Climbing FlightAware
01:20PM -33.8850 151.3310 176° South 155 178 1,900 -240 Descending FlightAware
01:20PM -33.8930 151.3290 192° South 153 176 1,900  Level FlightAware
01:20PM -33.8960 151.3270 209° Southwest 148 170 1,900  Level FlightAware
01:20PM -33.9090 151.3140 220° Southwest 133 153 1,900  Level FlightAware
01:21PM -33.9090 151.3130 270° West 133 153 1,900 -240 Level FlightAware
01:21PM -33.9120 151.2990 256° West 132 152 1,800 -300 Descending FlightAware
01:21PM -33.9160 151.2840 252° West 129 148 1,700 -540 Descending FlightAware
01:22PM -33.9180 151.2730 258° West 120 138 1,500 -780 Descending FlightAware
01:22PM -33.9200 151.2630 256° West 116 133 1,300 -720 Descending FlightAware
01:22PM -33.9230 151.2510 253° West 114 131 1,100 -600 Descending FlightAware
01:22PM -33.9260 151.2390 253° West 112 129 900 -600 Descending FlightAware
01:23PM -33.9290 151.2260 254° West 114 131 700 -660 Descending FlightAware
01:23PM -33.9320 151.2150 252° West 114 131 500 -600 Descending FlightAware
01:23PM -33.9350 151.2020 254° West 107 123 300 -480 Descending FlightAware
01:24PM -33.9390 151.1830 256° West 83 96 -600 Descending FlightAware